sensor_id;sensor_type;location;lat;lon;timestamp;P1;durP1;ratioP1;P2;durP2;ratioP2
68614;SDS011;55593;51.994;5.882;2023-04-24T00:01:41;8.05;;;6.57;;
68614;SDS011;55593;51.994;5.882;2023-04-24T00:04:12;8.13;;;6.47;;
68614;SDS011;55593;51.994;5.882;2023-04-24T00:06:42;11.70;;;6.75;;
68614;SDS011;55593;51.994;5.882;2023-04-24T00:09:15;8.27;;;7.20;;
68614;SDS011;55593;51.994;5.882;2023-04-24T00:11:44;9.10;;;7.60;;
68614;SDS011;55593;51.994;5.882;2023-04-24T00:14:13;10.98;;;7.97;;
68614;SDS011;55593;51.994;5.882;2023-04-24T00:16:42;10.32;;;7.95;;
68614;SDS011;55593;51.994;5.882;2023-04-24T00:19:14;9.45;;;7.38;;
68614;SDS011;55593;51.994;5.882;2023-04-24T00:21:47;8.98;;;7.30;;
68614;SDS011;55593;51.994;5.882;2023-04-24T00:24:16;9.00;;;6.60;;
68614;SDS011;55593;51.994;5.882;2023-04-24T00:26:46;10.60;;;6.63;;
68614;SDS011;55593;51.994;5.882;2023-04-24T00:29:15;7.38;;;5.88;;
68614;SDS011;55593;51.994;5.882;2023-04-24T00:31:44;6.63;;;5.15;;
68614;SDS011;55593;51.994;5.882;2023-04-24T00:34:16;6.60;;;4.50;;
68614;SDS011;55593;51.994;5.882;2023-04-24T00:36:46;7.13;;;3.78;;
68614;SDS011;55593;51.994;5.882;2023-04-24T00:39:17;4.55;;;3.95;;
68614;SDS011;55593;51.994;5.882;2023-04-24T00:41:47;6.38;;;3.63;;
68614;SDS011;55593;51.994;5.882;2023-04-24T00:44:16;4.03;;;3.20;;
68614;SDS011;55593;51.994;5.882;2023-04-24T00:46:45;4.53;;;3.30;;
68614;SDS011;55593;51.994;5.882;2023-04-24T00:49:20;4.13;;;3.47;;
68614;SDS011;55593;51.994;5.882;2023-04-24T00:51:50;7.72;;;4.22;;
68614;SDS011;55593;51.994;5.882;2023-04-24T00:54:19;7.10;;;3.95;;
68614;SDS011;55593;51.994;5.882;2023-04-24T00:56:50;5.25;;;4.00;;
68614;SDS011;55593;51.994;5.882;2023-04-24T00:59:19;7.00;;;4.65;;
68614;SDS011;55593;51.994;5.882;2023-04-24T01:01:49;6.30;;;4.45;;
68614;SDS011;55593;51.994;5.882;2023-04-24T01:04:21;6.00;;;5.20;;
68614;SDS011;55593;51.994;5.882;2023-04-24T01:06:50;6.07;;;5.07;;
68614;SDS011;55593;51.994;5.882;2023-04-24T01:09:19;7.30;;;6.22;;
68614;SDS011;55593;51.994;5.882;2023-04-24T01:11:50;7.22;;;6.20;;
68614;SDS011;55593;51.994;5.882;2023-04-24T01:14:19;13.70;;;7.57;;
68614;SDS011;55593;51.994;5.882;2023-04-24T01:16:49;10.73;;;7.47;;
68614;SDS011;55593;51.994;5.882;2023-04-24T01:19:23;11.88;;;9.70;;
68614;SDS011;55593;51.994;5.882;2023-04-24T01:21:53;14.63;;;11.57;;
68614;SDS011;55593;51.994;5.882;2023-04-24T01:24:25;18.48;;;12.48;;
68614;SDS011;55593;51.994;5.882;2023-04-24T01:26:54;17.77;;;12.40;;
68614;SDS011;55593;51.994;5.882;2023-04-24T01:29:24;16.50;;;12.45;;
68614;SDS011;55593;51.994;5.882;2023-04-24T01:31:53;21.27;;;14.60;;
68614;SDS011;55593;51.994;5.882;2023-04-24T01:34:24;20.27;;;13.30;;
68614;SDS011;55593;51.994;5.882;2023-04-24T01:36:53;20.48;;;14.50;;
68614;SDS011;55593;51.994;5.882;2023-04-24T01:39:25;15.00;;;10.75;;
68614;SDS011;55593;51.994;5.882;2023-04-24T01:41:54;12.48;;;10.00;;
68614;SDS011;55593;51.994;5.882;2023-04-24T01:44:24;13.23;;;9.55;;
68614;SDS011;55593;51.994;5.882;2023-04-24T01:46:53;14.75;;;9.90;;
68614;SDS011;55593;51.994;5.882;2023-04-24T01:49:23;13.70;;;9.23;;
68614;SDS011;55593;51.994;5.882;2023-04-24T01:51:52;10.90;;;8.50;;
68614;SDS011;55593;51.994;5.882;2023-04-24T01:54:21;9.25;;;7.43;;
68614;SDS011;55593;51.994;5.882;2023-04-24T01:56:55;10.63;;;7.85;;
68614;SDS011;55593;51.994;5.882;2023-04-24T01:59:24;10.05;;;7.43;;
68614;SDS011;55593;51.994;5.882;2023-04-24T02:01:54;10.75;;;7.90;;
68614;SDS011;55593;51.994;5.882;2023-04-24T02:04:23;9.90;;;6.95;;
68614;SDS011;55593;51.994;5.882;2023-04-24T02:06:52;10.05;;;7.50;;
68614;SDS011;55593;51.994;5.882;2023-04-24T02:09:21;12.70;;;8.82;;
68614;SDS011;55593;51.994;5.882;2023-04-24T02:11:53;16.10;;;10.50;;
68614;SDS011;55593;51.994;5.882;2023-04-24T02:14:23;14.10;;;10.07;;
68614;SDS011;55593;51.994;5.882;2023-04-24T02:16:52;14.68;;;11.00;;
68614;SDS011;55593;51.994;5.882;2023-04-24T02:19:22;17.38;;;12.07;;
68614;SDS011;55593;51.994;5.882;2023-04-24T02:21:51;20.45;;;12.77;;
68614;SDS011;55593;51.994;5.882;2023-04-24T02:24:21;18.88;;;13.68;;
68614;SDS011;55593;51.994;5.882;2023-04-24T02:26:52;19.60;;;13.57;;
68614;SDS011;55593;51.994;5.882;2023-04-24T02:29:22;18.70;;;13.75;;
68614;SDS011;55593;51.994;5.882;2023-04-24T02:31:51;19.05;;;14.68;;
68614;SDS011;55593;51.994;5.882;2023-04-24T02:34:20;23.95;;;16.20;;
68614;SDS011;55593;51.994;5.882;2023-04-24T02:36:50;22.33;;;17.25;;
68614;SDS011;55593;51.994;5.882;2023-04-24T02:39:19;28.35;;;21.13;;
68614;SDS011;55593;51.994;5.882;2023-04-24T02:41:48;35.83;;;24.00;;
68614;SDS011;55593;51.994;5.882;2023-04-24T02:44:20;34.00;;;24.27;;
68614;SDS011;55593;51.994;5.882;2023-04-24T02:46:50;31.77;;;24.25;;
68614;SDS011;55593;51.994;5.882;2023-04-24T02:49:19;30.77;;;22.45;;
68614;SDS011;55593;51.994;5.882;2023-04-24T02:51:48;31.27;;;22.35;;
68614;SDS011;55593;51.994;5.882;2023-04-24T02:54:17;32.50;;;22.58;;
68614;SDS011;55593;51.994;5.882;2023-04-24T02:56:47;32.03;;;24.60;;
68614;SDS011;55593;51.994;5.882;2023-04-24T02:59:16;35.63;;;25.48;;
68614;SDS011;55593;51.994;5.882;2023-04-24T03:01:47;32.78;;;23.40;;
68614;SDS011;55593;51.994;5.882;2023-04-24T03:04:17;33.60;;;23.70;;
68614;SDS011;55593;51.994;5.882;2023-04-24T03:06:48;34.22;;;22.75;;
68614;SDS011;55593;51.994;5.882;2023-04-24T03:09:19;32.72;;;22.45;;
68614;SDS011;55593;51.994;5.882;2023-04-24T03:11:49;24.40;;;18.42;;
68614;SDS011;55593;51.994;5.882;2023-04-24T03:14:18;24.92;;;18.33;;
68614;SDS011;55593;51.994;5.882;2023-04-24T03:16:50;28.25;;;20.33;;
68614;SDS011;55593;51.994;5.882;2023-04-24T03:19:19;25.58;;;18.83;;
68614;SDS011;55593;51.994;5.882;2023-04-24T03:21:58;30.98;;;20.50;;
68614;SDS011;55593;51.994;5.882;2023-04-24T03:24:28;31.92;;;24.02;;
68614;SDS011;55593;51.994;5.882;2023-04-24T03:26:58;32.40;;;22.60;;
68614;SDS011;55593;51.994;5.882;2023-04-24T03:29:45;39.80;;;23.73;;
68614;SDS011;55593;51.994;5.882;2023-04-24T03:32:20;33.55;;;23.45;;
68614;SDS011;55593;51.994;5.882;2023-04-24T03:34:50;27.63;;;20.92;;
68614;SDS011;55593;51.994;5.882;2023-04-24T03:37:20;32.97;;;22.80;;
68614;SDS011;55593;51.994;5.882;2023-04-24T03:39:58;35.00;;;24.25;;
68614;SDS011;55593;51.994;5.882;2023-04-24T03:42:28;30.70;;;24.67;;
68614;SDS011;55593;51.994;5.882;2023-04-24T03:44:59;42.33;;;26.08;;
68614;SDS011;55593;51.994;5.882;2023-04-24T03:47:36;38.03;;;27.10;;
68614;SDS011;55593;51.994;5.882;2023-04-24T03:50:06;36.75;;;27.45;;
68614;SDS011;55593;51.994;5.882;2023-04-24T03:52:36;42.45;;;30.08;;
68614;SDS011;55593;51.994;5.882;2023-04-24T03:55:06;45.05;;;30.83;;
68614;SDS011;55593;51.994;5.882;2023-04-24T03:57:43;43.17;;;29.85;;
68614;SDS011;55593;51.994;5.882;2023-04-24T04:00:20;46.38;;;31.60;;
68614;SDS011;55593;51.994;5.882;2023-04-24T04:03:04;51.20;;;33.95;;
68614;SDS011;55593;51.994;5.882;2023-04-24T04:05:33;47.88;;;34.97;;
68614;SDS011;55593;51.994;5.882;2023-04-24T04:08:02;46.90;;;34.55;;
68614;SDS011;55593;51.994;5.882;2023-04-24T04:10:32;53.53;;;36.05;;
68614;SDS011;55593;51.994;5.882;2023-04-24T04:13:04;53.05;;;36.85;;
68614;SDS011;55593;51.994;5.882;2023-04-24T04:15:35;50.85;;;36.75;;
68614;SDS011;55593;51.994;5.882;2023-04-24T04:18:07;54.17;;;34.97;;
68614;SDS011;55593;51.994;5.882;2023-04-24T04:20:37;47.45;;;34.60;;
68614;SDS011;55593;51.994;5.882;2023-04-24T04:23:06;48.65;;;35.05;;
68614;SDS011;55593;51.994;5.882;2023-04-24T04:25:49;49.28;;;34.75;;
68614;SDS011;55593;51.994;5.882;2023-04-24T04:28:22;47.15;;;32.75;;
68614;SDS011;55593;51.994;5.882;2023-04-24T04:30:52;48.63;;;34.15;;
68614;SDS011;55593;51.994;5.882;2023-04-24T04:33:26;47.05;;;32.58;;
68614;SDS011;55593;51.994;5.882;2023-04-24T04:35:55;41.08;;;32.00;;
68614;SDS011;55593;51.994;5.882;2023-04-24T04:38:28;47.08;;;34.15;;
68614;SDS011;55593;51.994;5.882;2023-04-24T04:41:04;43.30;;;34.55;;
68614;SDS011;55593;51.994;5.882;2023-04-24T04:43:34;48.42;;;32.67;;
68614;SDS011;55593;51.994;5.882;2023-04-24T04:46:05;46.92;;;32.88;;
68614;SDS011;55593;51.994;5.882;2023-04-24T04:49:02;43.20;;;31.65;;
68614;SDS011;55593;51.994;5.882;2023-04-24T04:51:32;42.35;;;31.48;;
68614;SDS011;55593;51.994;5.882;2023-04-24T04:54:01;42.65;;;31.77;;
68614;SDS011;55593;51.994;5.882;2023-04-24T04:56:31;43.40;;;32.65;;
68614;SDS011;55593;51.994;5.882;2023-04-24T04:59:01;43.90;;;30.35;;
68614;SDS011;55593;51.994;5.882;2023-04-24T05:01:32;42.50;;;29.85;;
68614;SDS011;55593;51.994;5.882;2023-04-24T05:04:05;39.65;;;29.42;;
68614;SDS011;55593;51.994;5.882;2023-04-24T05:06:34;34.78;;;27.15;;
68614;SDS011;55593;51.994;5.882;2023-04-24T05:09:05;40.47;;;28.67;;
68614;SDS011;55593;51.994;5.882;2023-04-24T05:11:47;37.95;;;27.83;;
68614;SDS011;55593;51.994;5.882;2023-04-24T05:14:16;43.47;;;29.70;;
68614;SDS011;55593;51.994;5.882;2023-04-24T05:16:46;34.42;;;27.73;;
68614;SDS011;55593;51.994;5.882;2023-04-24T05:19:20;32.40;;;26.13;;
68614;SDS011;55593;51.994;5.882;2023-04-24T05:21:50;41.00;;;26.92;;
68614;SDS011;55593;51.994;5.882;2023-04-24T05:24:20;36.10;;;26.17;;
68614;SDS011;55593;51.994;5.882;2023-04-24T05:26:54;35.17;;;27.40;;
68614;SDS011;55593;51.994;5.882;2023-04-24T05:29:30;34.88;;;26.30;;
68614;SDS011;55593;51.994;5.882;2023-04-24T05:31:59;39.70;;;27.00;;
68614;SDS011;55593;51.994;5.882;2023-04-24T05:34:33;31.20;;;25.30;;
68614;SDS011;55593;51.994;5.882;2023-04-24T05:37:02;33.25;;;24.52;;
68614;SDS011;55593;51.994;5.882;2023-04-24T05:39:34;33.88;;;24.95;;
68614;SDS011;55593;51.994;5.882;2023-04-24T05:42:03;36.60;;;24.17;;
68614;SDS011;55593;51.994;5.882;2023-04-24T05:44:33;34.03;;;24.27;;
68614;SDS011;55593;51.994;5.882;2023-04-24T05:47:02;32.00;;;21.38;;
68614;SDS011;55593;51.994;5.882;2023-04-24T05:49:34;28.88;;;21.42;;
68614;SDS011;55593;51.994;5.882;2023-04-24T05:52:04;27.70;;;20.00;;
68614;SDS011;55593;51.994;5.882;2023-04-24T05:54:35;22.60;;;18.17;;
68614;SDS011;55593;51.994;5.882;2023-04-24T05:57:05;22.55;;;17.17;;
68614;SDS011;55593;51.994;5.882;2023-04-24T05:59:49;28.27;;;18.40;;
68614;SDS011;55593;51.994;5.882;2023-04-24T06:02:20;25.77;;;18.17;;
68614;SDS011;55593;51.994;5.882;2023-04-24T06:04:52;23.38;;;17.55;;
68614;SDS011;55593;51.994;5.882;2023-04-24T06:07:21;25.33;;;17.08;;
68614;SDS011;55593;51.994;5.882;2023-04-24T06:09:51;19.60;;;15.70;;
68614;SDS011;55593;51.994;5.882;2023-04-24T06:12:22;19.48;;;15.18;;
68614;SDS011;55593;51.994;5.882;2023-04-24T06:15:05;21.80;;;16.50;;
68614;SDS011;55593;51.994;5.882;2023-04-24T06:17:57;21.40;;;15.25;;
68614;SDS011;55593;51.994;5.882;2023-04-24T06:20:29;22.25;;;15.43;;
68614;SDS011;55593;51.994;5.882;2023-04-24T06:22:59;18.73;;;13.57;;
68614;SDS011;55593;51.994;5.882;2023-04-24T06:25:28;22.27;;;15.52;;
68614;SDS011;55593;51.994;5.882;2023-04-24T06:27:57;21.30;;;13.68;;
68614;SDS011;55593;51.994;5.882;2023-04-24T06:30:29;21.33;;;13.98;;
68614;SDS011;55593;51.994;5.882;2023-04-24T06:32:58;18.08;;;12.80;;
68614;SDS011;55593;51.994;5.882;2023-04-24T06:35:30;18.13;;;12.10;;
68614;SDS011;55593;51.994;5.882;2023-04-24T06:37:59;15.57;;;10.05;;
68614;SDS011;55593;51.994;5.882;2023-04-24T06:40:28;16.17;;;10.95;;
68614;SDS011;55593;51.994;5.882;2023-04-24T06:42:57;12.70;;;10.13;;
68614;SDS011;55593;51.994;5.882;2023-04-24T06:45:29;13.88;;;9.73;;
68614;SDS011;55593;51.994;5.882;2023-04-24T06:47:58;11.25;;;8.80;;
68614;SDS011;55593;51.994;5.882;2023-04-24T06:50:30;13.70;;;9.32;;
68614;SDS011;55593;51.994;5.882;2023-04-24T06:52:59;9.07;;;7.70;;
68614;SDS011;55593;51.994;5.882;2023-04-24T06:55:28;9.73;;;7.97;;
68614;SDS011;55593;51.994;5.882;2023-04-24T06:57:57;13.02;;;7.90;;
68614;SDS011;55593;51.994;5.882;2023-04-24T07:00:26;10.07;;;7.00;;
68614;SDS011;55593;51.994;5.882;2023-04-24T07:02:55;9.82;;;6.68;;
68614;SDS011;55593;51.994;5.882;2023-04-24T07:05:25;10.68;;;6.18;;
68614;SDS011;55593;51.994;5.882;2023-04-24T07:07:57;9.55;;;5.47;;
68614;SDS011;55593;51.994;5.882;2023-04-24T07:10:27;7.43;;;5.53;;
68614;SDS011;55593;51.994;5.882;2023-04-24T07:12:56;10.48;;;5.60;;
68614;SDS011;55593;51.994;5.882;2023-04-24T07:15:25;6.95;;;4.82;;
68614;SDS011;55593;51.994;5.882;2023-04-24T07:17:54;10.38;;;5.22;;
68614;SDS011;55593;51.994;5.882;2023-04-24T07:20:23;7.32;;;5.00;;
68614;SDS011;55593;51.994;5.882;2023-04-24T07:22:52;11.75;;;5.03;;
68614;SDS011;55593;51.994;5.882;2023-04-24T07:25:24;15.32;;;4.50;;
68614;SDS011;55593;51.994;5.882;2023-04-24T07:27:53;6.60;;;4.97;;
68614;SDS011;55593;51.994;5.882;2023-04-24T07:30:23;7.10;;;4.55;;
68614;SDS011;55593;51.994;5.882;2023-04-24T07:32:54;5.93;;;4.28;;
68614;SDS011;55593;51.994;5.882;2023-04-24T07:35:24;6.55;;;3.70;;
68614;SDS011;55593;51.994;5.882;2023-04-24T07:37:53;5.28;;;3.47;;
68614;SDS011;55593;51.994;5.882;2023-04-24T07:40:25;7.18;;;3.83;;
68614;SDS011;55593;51.994;5.882;2023-04-24T07:42:54;8.55;;;5.22;;
68614;SDS011;55593;51.994;5.882;2023-04-24T07:45:23;8.00;;;5.43;;
68614;SDS011;55593;51.994;5.882;2023-04-24T07:47:53;11.32;;;5.57;;
68614;SDS011;55593;51.994;5.882;2023-04-24T07:50:23;9.48;;;7.05;;
68614;SDS011;55593;51.994;5.882;2023-04-24T07:52:52;10.32;;;6.72;;
68614;SDS011;55593;51.994;5.882;2023-04-24T07:55:21;10.85;;;6.72;;
68614;SDS011;55593;51.994;5.882;2023-04-24T07:57:53;14.95;;;7.43;;
68614;SDS011;55593;51.994;5.882;2023-04-24T08:00:22;12.50;;;7.88;;
68614;SDS011;55593;51.994;5.882;2023-04-24T08:02:51;10.20;;;7.78;;
68614;SDS011;55593;51.994;5.882;2023-04-24T08:05:21;12.60;;;8.70;;
68614;SDS011;55593;51.994;5.882;2023-04-24T08:07:51;15.98;;;8.80;;
68614;SDS011;55593;51.994;5.882;2023-04-24T08:10:20;15.85;;;9.52;;
68614;SDS011;55593;51.994;5.882;2023-04-24T08:12:50;13.95;;;9.52;;
68614;SDS011;55593;51.994;5.882;2023-04-24T08:15:22;19.65;;;10.13;;
68614;SDS011;55593;51.994;5.882;2023-04-24T08:17:51;16.52;;;10.38;;
68614;SDS011;55593;51.994;5.882;2023-04-24T08:20:21;16.20;;;10.07;;
68614;SDS011;55593;51.994;5.882;2023-04-24T08:22:51;18.17;;;10.48;;
68614;SDS011;55593;51.994;5.882;2023-04-24T08:25:21;14.27;;;9.90;;
68614;SDS011;55593;51.994;5.882;2023-04-24T08:27:53;16.17;;;9.23;;
68614;SDS011;55593;51.994;5.882;2023-04-24T08:30:23;20.35;;;9.88;;
68614;SDS011;55593;51.994;5.882;2023-04-24T08:32:53;20.38;;;9.82;;
68614;SDS011;55593;51.994;5.882;2023-04-24T08:35:22;16.33;;;9.82;;
68614;SDS011;55593;51.994;5.882;2023-04-24T08:37:51;18.20;;;10.73;;
68614;SDS011;55593;51.994;5.882;2023-04-24T08:40:22;20.40;;;11.57;;
68614;SDS011;55593;51.994;5.882;2023-04-24T08:42:57;17.42;;;11.63;;
68614;SDS011;55593;51.994;5.882;2023-04-24T08:45:28;19.70;;;12.10;;
68614;SDS011;55593;51.994;5.882;2023-04-24T08:47:58;22.42;;;12.45;;
68614;SDS011;55593;51.994;5.882;2023-04-24T08:50:27;24.10;;;11.60;;
68614;SDS011;55593;51.994;5.882;2023-04-24T08:52:58;26.85;;;12.10;;
68614;SDS011;55593;51.994;5.882;2023-04-24T08:55:27;20.05;;;11.82;;
68614;SDS011;55593;51.994;5.882;2023-04-24T08:58:01;20.98;;;11.70;;
68614;SDS011;55593;51.994;5.882;2023-04-24T09:00:30;18.65;;;9.68;;
68614;SDS011;55593;51.994;5.882;2023-04-24T09:03:00;18.63;;;7.95;;
68614;SDS011;55593;51.994;5.882;2023-04-24T09:05:30;16.98;;;7.93;;
68614;SDS011;55593;51.994;5.882;2023-04-24T09:07:59;15.70;;;7.75;;
68614;SDS011;55593;51.994;5.882;2023-04-24T09:10:30;11.35;;;5.28;;
68614;SDS011;55593;51.994;5.882;2023-04-24T09:13:02;11.05;;;6.32;;
68614;SDS011;55593;51.994;5.882;2023-04-24T09:15:32;15.15;;;5.43;;
68614;SDS011;55593;51.994;5.882;2023-04-24T09:18:01;16.75;;;5.93;;
68614;SDS011;55593;51.994;5.882;2023-04-24T09:20:30;19.80;;;6.20;;
68614;SDS011;55593;51.994;5.882;2023-04-24T09:23:01;17.20;;;5.70;;
68614;SDS011;55593;51.994;5.882;2023-04-24T09:25:31;17.33;;;6.28;;
68614;SDS011;55593;51.994;5.882;2023-04-24T09:28:04;23.05;;;6.70;;
68614;SDS011;55593;51.994;5.882;2023-04-24T09:30:34;15.15;;;5.28;;
68614;SDS011;55593;51.994;5.882;2023-04-24T09:33:12;18.55;;;5.32;;
68614;SDS011;55593;51.994;5.882;2023-04-24T09:35:43;21.50;;;6.15;;
68614;SDS011;55593;51.994;5.882;2023-04-24T09:38:17;28.95;;;4.93;;
68614;SDS011;55593;51.994;5.882;2023-04-24T09:40:46;23.35;;;5.38;;
68614;SDS011;55593;51.994;5.882;2023-04-24T09:43:18;20.65;;;5.18;;
68614;SDS011;55593;51.994;5.882;2023-04-24T09:45:47;16.52;;;3.92;;
68614;SDS011;55593;51.994;5.882;2023-04-24T09:48:17;17.02;;;4.72;;
68614;SDS011;55593;51.994;5.882;2023-04-24T09:50:46;17.85;;;4.30;;
68614;SDS011;55593;51.994;5.882;2023-04-24T09:53:15;15.02;;;4.05;;
68614;SDS011;55593;51.994;5.882;2023-04-24T09:55:45;19.52;;;4.82;;
68614;SDS011;55593;51.994;5.882;2023-04-24T09:58:18;16.33;;;3.65;;
68614;SDS011;55593;51.994;5.882;2023-04-24T10:00:53;18.05;;;4.53;;
68614;SDS011;55593;51.994;5.882;2023-04-24T10:03:24;18.52;;;4.10;;
68614;SDS011;55593;51.994;5.882;2023-04-24T10:05:54;18.05;;;4.57;;
68614;SDS011;55593;51.994;5.882;2023-04-24T10:08:27;20.63;;;4.90;;
68614;SDS011;55593;51.994;5.882;2023-04-24T10:11:01;18.05;;;4.32;;
68614;SDS011;55593;51.994;5.882;2023-04-24T10:13:33;24.02;;;4.30;;
68614;SDS011;55593;51.994;5.882;2023-04-24T10:16:03;16.88;;;4.75;;
68614;SDS011;55593;51.994;5.882;2023-04-24T10:18:33;18.23;;;4.43;;
68614;SDS011;55593;51.994;5.882;2023-04-24T10:21:02;22.95;;;5.57;;
68614;SDS011;55593;51.994;5.882;2023-04-24T10:23:31;16.75;;;4.30;;
68614;SDS011;55593;51.994;5.882;2023-04-24T10:26:01;13.82;;;3.95;;
68614;SDS011;55593;51.994;5.882;2023-04-24T10:28:33;17.80;;;5.47;;
68614;SDS011;55593;51.994;5.882;2023-04-24T10:31:02;17.98;;;4.72;;
68614;SDS011;55593;51.994;5.882;2023-04-24T10:33:32;23.55;;;4.43;;
68614;SDS011;55593;51.994;5.882;2023-04-24T10:36:02;15.10;;;4.18;;
68614;SDS011;55593;51.994;5.882;2023-04-24T10:38:31;11.02;;;3.80;;
68614;SDS011;55593;51.994;5.882;2023-04-24T10:41:07;15.13;;;4.70;;
68614;SDS011;55593;51.994;5.882;2023-04-24T10:43:44;16.55;;;4.38;;
68614;SDS011;55593;51.994;5.882;2023-04-24T10:46:16;16.30;;;4.47;;
68614;SDS011;55593;51.994;5.882;2023-04-24T10:48:51;12.10;;;3.33;;
68614;SDS011;55593;51.994;5.882;2023-04-24T10:51:21;13.93;;;3.22;;
68614;SDS011;55593;51.994;5.882;2023-04-24T10:53:51;12.60;;;3.70;;
68614;SDS011;55593;51.994;5.882;2023-04-24T10:56:21;11.02;;;3.35;;
68614;SDS011;55593;51.994;5.882;2023-04-24T10:58:53;12.32;;;3.28;;
68614;SDS011;55593;51.994;5.882;2023-04-24T11:01:25;15.50;;;3.25;;
68614;SDS011;55593;51.994;5.882;2023-04-24T11:03:56;11.25;;;3.15;;
68614;SDS011;55593;51.994;5.882;2023-04-24T11:06:28;10.38;;;2.88;;
68614;SDS011;55593;51.994;5.882;2023-04-24T11:09:02;13.52;;;3.10;;
68614;SDS011;55593;51.994;5.882;2023-04-24T11:11:33;9.60;;;2.88;;
68614;SDS011;55593;51.994;5.882;2023-04-24T11:14:09;11.80;;;3.00;;
68614;SDS011;55593;51.994;5.882;2023-04-24T11:16:43;9.60;;;2.30;;
68614;SDS011;55593;51.994;5.882;2023-04-24T11:19:21;9.15;;;2.40;;
68614;SDS011;55593;51.994;5.882;2023-04-24T11:21:56;7.07;;;2.20;;
68614;SDS011;55593;51.994;5.882;2023-04-24T11:24:32;8.40;;;2.55;;
68614;SDS011;55593;51.994;5.882;2023-04-24T11:27:19;7.63;;;1.90;;
68614;SDS011;55593;51.994;5.882;2023-04-24T11:29:59;11.15;;;2.58;;
68614;SDS011;55593;51.994;5.882;2023-04-24T11:32:29;6.63;;;1.80;;
68614;SDS011;55593;51.994;5.882;2023-04-24T11:35:00;5.40;;;1.95;;
68614;SDS011;55593;51.994;5.882;2023-04-24T11:37:34;7.28;;;1.58;;
68614;SDS011;55593;51.994;5.882;2023-04-24T11:40:05;6.63;;;1.60;;
68614;SDS011;55593;51.994;5.882;2023-04-24T11:42:36;5.50;;;1.50;;
68614;SDS011;55593;51.994;5.882;2023-04-24T11:45:10;5.32;;;1.52;;
68614;SDS011;55593;51.994;5.882;2023-04-24T11:47:41;5.82;;;1.83;;
68614;SDS011;55593;51.994;5.882;2023-04-24T11:50:11;4.38;;;1.50;;
68614;SDS011;55593;51.994;5.882;2023-04-24T11:52:43;4.00;;;1.95;;
68614;SDS011;55593;51.994;5.882;2023-04-24T11:55:22;12.10;;;2.92;;
68614;SDS011;55593;51.994;5.882;2023-04-24T11:57:54;5.10;;;2.20;;
68614;SDS011;55593;51.994;5.882;2023-04-24T12:00:28;6.22;;;1.52;;
68614;SDS011;55593;51.994;5.882;2023-04-24T12:03:03;4.93;;;1.27;;
68614;SDS011;55593;51.994;5.882;2023-04-24T12:05:34;6.93;;;1.95;;
68614;SDS011;55593;51.994;5.882;2023-04-24T12:08:04;7.63;;;1.60;;
68614;SDS011;55593;51.994;5.882;2023-04-24T12:10:35;7.53;;;1.40;;
68614;SDS011;55593;51.994;5.882;2023-04-24T12:13:04;4.28;;;1.80;;
68614;SDS011;55593;51.994;5.882;2023-04-24T12:15:39;4.25;;;1.33;;
68614;SDS011;55593;51.994;5.882;2023-04-24T12:18:11;6.78;;;1.50;;
68614;SDS011;55593;51.994;5.882;2023-04-24T12:20:42;6.05;;;1.60;;
68614;SDS011;55593;51.994;5.882;2023-04-24T12:23:11;9.98;;;1.70;;
68614;SDS011;55593;51.994;5.882;2023-04-24T12:25:41;8.93;;;2.00;;
68614;SDS011;55593;51.994;5.882;2023-04-24T12:28:10;7.20;;;2.00;;
68614;SDS011;55593;51.994;5.882;2023-04-24T12:30:43;6.32;;;1.38;;
68614;SDS011;55593;51.994;5.882;2023-04-24T12:33:17;4.00;;;1.50;;
68614;SDS011;55593;51.994;5.882;2023-04-24T12:35:47;5.75;;;1.30;;
68614;SDS011;55593;51.994;5.882;2023-04-24T12:38:21;5.03;;;1.67;;
68614;SDS011;55593;51.994;5.882;2023-04-24T12:41:01;7.47;;;1.52;;
68614;SDS011;55593;51.994;5.882;2023-04-24T12:43:30;9.63;;;1.63;;
68614;SDS011;55593;51.994;5.882;2023-04-24T12:46:02;7.35;;;1.70;;
68614;SDS011;55593;51.994;5.882;2023-04-24T12:48:31;6.68;;;1.77;;
68614;SDS011;55593;51.994;5.882;2023-04-24T12:51:00;10.43;;;1.95;;
68614;SDS011;55593;51.994;5.882;2023-04-24T12:53:30;9.15;;;1.48;;
68614;SDS011;55593;51.994;5.882;2023-04-24T12:55:59;5.75;;;1.25;;
68614;SDS011;55593;51.994;5.882;2023-04-24T12:58:28;5.38;;;1.23;;
68614;SDS011;55593;51.994;5.882;2023-04-24T13:00:57;5.60;;;2.00;;
68614;SDS011;55593;51.994;5.882;2023-04-24T13:03:29;6.07;;;1.45;;
68614;SDS011;55593;51.994;5.882;2023-04-24T13:05:58;6.47;;;1.73;;
68614;SDS011;55593;51.994;5.882;2023-04-24T13:08:27;4.38;;;1.40;;
68614;SDS011;55593;51.994;5.882;2023-04-24T13:10:56;4.93;;;1.40;;
68614;SDS011;55593;51.994;5.882;2023-04-24T13:13:26;7.30;;;1.60;;
68614;SDS011;55593;51.994;5.882;2023-04-24T13:15:55;7.50;;;1.55;;
68614;SDS011;55593;51.994;5.882;2023-04-24T13:18:24;5.03;;;1.70;;
68614;SDS011;55593;51.994;5.882;2023-04-24T13:20:56;9.68;;;1.88;;
68614;SDS011;55593;51.994;5.882;2023-04-24T13:23:25;6.53;;;1.42;;
68614;SDS011;55593;51.994;5.882;2023-04-24T13:25:55;4.97;;;1.35;;
68614;SDS011;55593;51.994;5.882;2023-04-24T13:28:24;5.63;;;1.95;;
68614;SDS011;55593;51.994;5.882;2023-04-24T13:30:54;6.65;;;1.85;;
68614;SDS011;55593;51.994;5.882;2023-04-24T13:33:23;11.32;;;2.72;;
68614;SDS011;55593;51.994;5.882;2023-04-24T13:35:52;10.52;;;2.30;;
68614;SDS011;55593;51.994;5.882;2023-04-24T13:38:24;8.27;;;1.98;;
68614;SDS011;55593;51.994;5.882;2023-04-24T13:40:53;9.57;;;2.15;;
68614;SDS011;55593;51.994;5.882;2023-04-24T13:43:22;13.05;;;2.40;;
68614;SDS011;55593;51.994;5.882;2023-04-24T13:45:51;13.02;;;2.42;;
68614;SDS011;55593;51.994;5.882;2023-04-24T13:48:20;9.88;;;2.17;;
68614;SDS011;55593;51.994;5.882;2023-04-24T13:50:50;9.45;;;2.38;;
68614;SDS011;55593;51.994;5.882;2023-04-24T13:53:19;10.07;;;2.20;;
68614;SDS011;55593;51.994;5.882;2023-04-24T13:55:50;7.45;;;2.15;;
68614;SDS011;55593;51.994;5.882;2023-04-24T13:58:20;9.90;;;3.10;;
68614;SDS011;55593;51.994;5.882;2023-04-24T14:00:49;10.57;;;3.50;;
68614;SDS011;55593;51.994;5.882;2023-04-24T14:03:18;9.60;;;2.50;;
68614;SDS011;55593;51.994;5.882;2023-04-24T14:05:48;11.30;;;2.38;;
68614;SDS011;55593;51.994;5.882;2023-04-24T14:08:17;8.10;;;1.98;;
68614;SDS011;55593;51.994;5.882;2023-04-24T14:10:46;13.85;;;2.67;;
68614;SDS011;55593;51.994;5.882;2023-04-24T14:13:18;12.18;;;2.53;;
68614;SDS011;55593;51.994;5.882;2023-04-24T14:15:48;12.27;;;2.45;;
68614;SDS011;55593;51.994;5.882;2023-04-24T14:18:18;12.57;;;3.30;;
68614;SDS011;55593;51.994;5.882;2023-04-24T14:20:47;14.55;;;2.80;;
68614;SDS011;55593;51.994;5.882;2023-04-24T14:23:16;10.73;;;2.75;;
68614;SDS011;55593;51.994;5.882;2023-04-24T14:25:46;10.88;;;2.90;;
68614;SDS011;55593;51.994;5.882;2023-04-24T14:28:20;12.50;;;3.83;;
68614;SDS011;55593;51.994;5.882;2023-04-24T14:30:49;14.85;;;3.53;;
68614;SDS011;55593;51.994;5.882;2023-04-24T14:33:19;11.02;;;3.05;;
68614;SDS011;55593;51.994;5.882;2023-04-24T14:35:48;13.85;;;3.13;;
68614;SDS011;55593;51.994;5.882;2023-04-24T14:38:17;12.48;;;3.78;;
68614;SDS011;55593;51.994;5.882;2023-04-24T14:40:47;12.73;;;3.25;;
68614;SDS011;55593;51.994;5.882;2023-04-24T14:43:16;15.68;;;3.13;;
68614;SDS011;55593;51.994;5.882;2023-04-24T14:45:48;11.07;;;2.78;;
68614;SDS011;55593;51.994;5.882;2023-04-24T14:48:17;12.48;;;2.58;;
68614;SDS011;55593;51.994;5.882;2023-04-24T14:50:46;11.13;;;3.25;;
68614;SDS011;55593;51.994;5.882;2023-04-24T14:53:15;17.05;;;3.28;;
68614;SDS011;55593;51.994;5.882;2023-04-24T14:55:44;14.63;;;3.25;;